Cave Spring, Virginia
Current Conditions -  °F | °C
As of 1:54 PM on Monday 20 Oct 2014 (Local Time) from KROA Reporting Station
Broken Clouds Broken Clouds  
Wind Chill: 64°   Ceiling: 25000
Heat Index: 64°   Visibility: 10mi
Dew Point: 45°   Wind: 7mph
Humidity: 50%   Direction: 170°S
Pressure: 30.01"   Gusts: NA
Location:  37.23°N, 80.01°W
Report Text: KROA 201754Z 17006KT 10SM FEW045 BKN250 18/07 A3001 RMK AO2 SLP160 60000 T01780072 10178 20039 58036
Loading
Personal Weather Stations






























Interactive Weather Map
Tropical Storm Tracking
New forecast layout! Learn more

10-Day Weather Forecast

Advertisements
Track Severe Weather on mobile